Saint John, Indiana
Current Conditions -  °F | °C
As of 2:35 PM on Saturday 20 Dec 2014 (Local Time) from KIGQ Reporting Station
Overcast Overcast  
Wind Chill: 26°   Ceiling: 2300
Heat Index: 33°   Visibility: 10mi
Dew Point: 26°   Wind: 7mph
Humidity: 77%   Direction: 220°SW
Pressure: 30.25"   Gusts: NA
Location:  41.45°N, 87.47°W
Report Text: KIGQ 202035Z AUTO 22006KT 10SM BKN023 OVC070 00/M03 A3025 RMK AO2 T00031033
Loading
Personal Weather Stations






























Interactive Weather Map New forecast layout! Learn more

10-Day Weather Forecast

Advertisements
Track Severe Weather on mobile